sensor_id;sensor_type;location;lat;lon;timestamp;temperature;humidity
2565;DHT22;1292;48.020;7.822;2023-03-29T05:46:32;11.60;99.90
2565;DHT22;1292;48.020;7.822;2023-03-29T05:48:58;11.60;99.90
2565;DHT22;1292;48.020;7.822;2023-03-29T05:51:25;11.60;99.90
2565;DHT22;1292;48.020;7.822;2023-03-29T05:53:52;11.70;99.90
2565;DHT22;1292;48.020;7.822;2023-03-29T05:56:19;11.70;99.90
2565;DHT22;1292;48.020;7.822;2023-03-29T05:58:47;11.70;99.90
2565;DHT22;1292;48.020;7.822;2023-03-29T06:01:15;11.80;99.90
2565;DHT22;1292;48.020;7.822;2023-03-29T06:03:44;11.80;99.90
2565;DHT22;1292;48.020;7.822;2023-03-29T06:06:11;11.80;99.90
2565;DHT22;1292;48.020;7.822;2023-03-29T06:08:40;11.90;99.90
2565;DHT22;1292;48.020;7.822;2023-03-29T06:11:09;11.90;99.90
2565;DHT22;1292;48.020;7.822;2023-03-29T06:13:36;11.90;99.90
2565;DHT22;1292;48.020;7.822;2023-03-29T06:16:03;11.90;99.90
2565;DHT22;1292;48.020;7.822;2023-03-29T06:18:31;11.90;99.90
2565;DHT22;1292;48.020;7.822;2023-03-29T06:20:59;12.00;99.90
2565;DHT22;1292;48.020;7.822;2023-03-29T06:23:27;12.10;99.90
2565;DHT22;1292;48.020;7.822;2023-03-29T06:25:55;12.10;99.90
2565;DHT22;1292;48.020;7.822;2023-03-29T06:28:22;12.10;99.90
2565;DHT22;1292;48.020;7.822;2023-03-29T06:30:49;12.10;99.90
2565;DHT22;1292;48.020;7.822;2023-03-29T06:33:18;12.20;99.90
2565;DHT22;1292;48.020;7.822;2023-03-29T06:35:46;12.10;99.90
2565;DHT22;1292;48.020;7.822;2023-03-29T06:38:15;12.20;99.90
2565;DHT22;1292;48.020;7.822;2023-03-29T06:40:42;12.20;99.90
2565;DHT22;1292;48.020;7.822;2023-03-29T06:43:10;12.20;99.90
2565;DHT22;1292;48.020;7.822;2023-03-29T06:45:37;12.20;99.90
2565;DHT22;1292;48.020;7.822;2023-03-29T06:48:05;12.20;99.90
2565;DHT22;1292;48.020;7.822;2023-03-29T06:50:32;12.20;99.90
2565;DHT22;1292;48.020;7.822;2023-03-29T06:52:59;12.30;99.90
2565;DHT22;1292;48.020;7.822;2023-03-29T06:55:28;12.30;99.90
2565;DHT22;1292;48.020;7.822;2023-03-29T06:57:56;12.40;99.90
2565;DHT22;1292;48.020;7.822;2023-03-29T07:00:23;12.40;99.90
2565;DHT22;1292;48.020;7.822;2023-03-29T07:02:53;12.40;99.90
2565;DHT22;1292;48.020;7.822;2023-03-29T07:05:22;12.50;99.90
2565;DHT22;1292;48.020;7.822;2023-03-29T07:07:49;12.60;99.90
2565;DHT22;1292;48.020;7.822;2023-03-29T07:10:22;12.60;99.90
2565;DHT22;1292;48.020;7.822;2023-03-29T07:12:51;12.60;99.90
2565;DHT22;1292;48.020;7.822;2023-03-29T07:15:19;12.70;99.90
2565;DHT22;1292;48.020;7.822;2023-03-29T07:17:46;12.70;99.90
2565;DHT22;1292;48.020;7.822;2023-03-29T07:20:13;12.70;99.90
2565;DHT22;1292;48.020;7.822;2023-03-29T07:22:41;12.70;99.90
2565;DHT22;1292;48.020;7.822;2023-03-29T07:25:09;12.70;99.90
2565;DHT22;1292;48.020;7.822;2023-03-29T07:27:37;12.70;99.90
2565;DHT22;1292;48.020;7.822;2023-03-29T07:30:07;12.80;99.90
2565;DHT22;1292;48.020;7.822;2023-03-29T07:32:35;12.70;99.90
2565;DHT22;1292;48.020;7.822;2023-03-29T07:35:03;12.70;99.90
2565;DHT22;1292;48.020;7.822;2023-03-29T07:37:31;12.80;99.90
2565;DHT22;1292;48.020;7.822;2023-03-29T07:39:58;12.80;99.90
2565;DHT22;1292;48.020;7.822;2023-03-29T07:42:25;12.80;99.90
2565;DHT22;1292;48.020;7.822;2023-03-29T07:44:53;12.80;99.90
2565;DHT22;1292;48.020;7.822;2023-03-29T07:47:21;12.80;99.90
2565;DHT22;1292;48.020;7.822;2023-03-29T07:49:49;12.80;99.90
2565;DHT22;1292;48.020;7.822;2023-03-29T07:52:15;12.90;99.90
2565;DHT22;1292;48.020;7.822;2023-03-29T07:54:42;12.90;99.90
2565;DHT22;1292;48.020;7.822;2023-03-29T07:57:09;13.00;99.90
2565;DHT22;1292;48.020;7.822;2023-03-29T07:59:36;13.10;99.90
2565;DHT22;1292;48.020;7.822;2023-03-29T08:02:03;13.10;99.90
2565;DHT22;1292;48.020;7.822;2023-03-29T08:04:31;13.20;99.90
2565;DHT22;1292;48.020;7.822;2023-03-29T08:06:58;13.20;99.90
2565;DHT22;1292;48.020;7.822;2023-03-29T08:09:24;13.20;99.90
2565;DHT22;1292;48.020;7.822;2023-03-29T08:11:52;13.30;99.90
2565;DHT22;1292;48.020;7.822;2023-03-29T08:14:19;13.40;99.90
2565;DHT22;1292;48.020;7.822;2023-03-29T08:16:48;13.40;99.90
2565;DHT22;1292;48.020;7.822;2023-03-29T08:19:16;13.40;99.90
2565;DHT22;1292;48.020;7.822;2023-03-29T08:21:44;13.50;99.90
2565;DHT22;1292;48.020;7.822;2023-03-29T08:24:11;13.60;99.90
2565;DHT22;1292;48.020;7.822;2023-03-29T08:26:39;13.60;99.90
2565;DHT22;1292;48.020;7.822;2023-03-29T08:29:06;13.70;99.90
2565;DHT22;1292;48.020;7.822;2023-03-29T08:31:34;13.70;99.90
2565;DHT22;1292;48.020;7.822;2023-03-29T08:34:01;13.80;99.90
2565;DHT22;1292;48.020;7.822;2023-03-29T08:36:28;13.90;99.90
2565;DHT22;1292;48.020;7.822;2023-03-29T08:38:56;14.00;99.90
2565;DHT22;1292;48.020;7.822;2023-03-29T08:41:31;14.00;99.90
2565;DHT22;1292;48.020;7.822;2023-03-29T08:44:08;14.10;99.90
2565;DHT22;1292;48.020;7.822;2023-03-29T08:46:43;14.00;99.90
2565;DHT22;1292;48.020;7.822;2023-03-29T08:49:16;14.10;99.90
2565;DHT22;1292;48.020;7.822;2023-03-29T08:51:46;14.10;99.90
2565;DHT22;1292;48.020;7.822;2023-03-29T08:54:21;14.10;99.90
2565;DHT22;1292;48.020;7.822;2023-03-29T08:56:52;14.20;99.90
2565;DHT22;1292;48.020;7.822;2023-03-29T08:59:22;14.20;99.90
2565;DHT22;1292;48.020;7.822;2023-03-29T09:01:53;14.20;99.90
2565;DHT22;1292;48.020;7.822;2023-03-29T09:04:23;14.20;99.90
2565;DHT22;1292;48.020;7.822;2023-03-29T09:06:52;14.20;99.90
2565;DHT22;1292;48.020;7.822;2023-03-29T09:09:22;14.20;99.90
2565;DHT22;1292;48.020;7.822;2023-03-29T09:12:03;14.10;99.90
2565;DHT22;1292;48.020;7.822;2023-03-29T09:14:51;14.10;99.90
2565;DHT22;1292;48.020;7.822;2023-03-29T09:17:35;14.10;99.90
2565;DHT22;1292;48.020;7.822;2023-03-29T09:20:11;14.10;99.90
2565;DHT22;1292;48.020;7.822;2023-03-29T09:22:44;14.10;99.90
2565;DHT22;1292;48.020;7.822;2023-03-29T09:25:19;14.20;99.90
2565;DHT22;1292;48.020;7.822;2023-03-29T09:27:56;14.30;99.90
2565;DHT22;1292;48.020;7.822;2023-03-29T09:30:27;14.30;99.90
2565;DHT22;1292;48.020;7.822;2023-03-29T09:32:57;14.30;99.90
2565;DHT22;1292;48.020;7.822;2023-03-29T09:35:29;14.40;99.90
2565;DHT22;1292;48.020;7.822;2023-03-29T09:37:57;14.40;99.90
2565;DHT22;1292;48.020;7.822;2023-03-29T09:40:31;14.30;99.90
2565;DHT22;1292;48.020;7.822;2023-03-29T09:43:00;14.40;99.90
2565;DHT22;1292;48.020;7.822;2023-03-29T09:45:29;14.40;99.90
2565;DHT22;1292;48.020;7.822;2023-03-29T09:47:57;14.50;99.90
2565;DHT22;1292;48.020;7.822;2023-03-29T09:50:31;14.50;99.90
2565;DHT22;1292;48.020;7.822;2023-03-29T09:53:00;14.60;99.90
2565;DHT22;1292;48.020;7.822;2023-03-29T09:55:30;14.60;99.90
2565;DHT22;1292;48.020;7.822;2023-03-29T09:58:00;14.60;99.90
2565;DHT22;1292;48.020;7.822;2023-03-29T10:00:28;14.70;99.90
2565;DHT22;1292;48.020;7.822;2023-03-29T10:02:56;14.80;99.90
2565;DHT22;1292;48.020;7.822;2023-03-29T10:05:25;14.80;99.90
2565;DHT22;1292;48.020;7.822;2023-03-29T10:07:53;14.80;99.90
2565;DHT22;1292;48.020;7.822;2023-03-29T10:10:29;14.80;99.90
2565;DHT22;1292;48.020;7.822;2023-03-29T10:12:58;14.80;99.90
2565;DHT22;1292;48.020;7.822;2023-03-29T10:15:27;14.80;99.90
2565;DHT22;1292;48.020;7.822;2023-03-29T10:17:57;14.80;99.90
2565;DHT22;1292;48.020;7.822;2023-03-29T10:20:24;14.90;99.90
2565;DHT22;1292;48.020;7.822;2023-03-29T10:22:55;14.90;99.90
2565;DHT22;1292;48.020;7.822;2023-03-29T10:25:25;15.00;99.90
2565;DHT22;1292;48.020;7.822;2023-03-29T10:28:02;15.00;99.90
2565;DHT22;1292;48.020;7.822;2023-03-29T10:30:31;15.00;99.90
2565;DHT22;1292;48.020;7.822;2023-03-29T10:33:00;15.00;99.90
2565;DHT22;1292;48.020;7.822;2023-03-29T10:35:29;15.00;99.90
2565;DHT22;1292;48.020;7.822;2023-03-29T10:37:59;15.00;99.90
2565;DHT22;1292;48.020;7.822;2023-03-29T10:40:29;15.10;99.90
2565;DHT22;1292;48.020;7.822;2023-03-29T10:42:59;15.00;99.90
2565;DHT22;1292;48.020;7.822;2023-03-29T10:45:28;15.00;99.90
2565;DHT22;1292;48.020;7.822;2023-03-29T10:47:57;15.00;99.90
2565;DHT22;1292;48.020;7.822;2023-03-29T10:50:25;15.10;99.90
2565;DHT22;1292;48.020;7.822;2023-03-29T10:52:52;15.10;99.90
2565;DHT22;1292;48.020;7.822;2023-03-29T10:55:20;15.10;99.90
2565;DHT22;1292;48.020;7.822;2023-03-29T10:57:55;15.10;99.90
2565;DHT22;1292;48.020;7.822;2023-03-29T11:00:32;15.10;99.90
2565;DHT22;1292;48.020;7.822;2023-03-29T11:03:32;15.20;99.90
2565;DHT22;1292;48.020;7.822;2023-03-29T11:06:13;15.20;99.90
2565;DHT22;1292;48.020;7.822;2023-03-29T11:08:50;15.40;99.90
2565;DHT22;1292;48.020;7.822;2023-03-29T11:11:34;15.40;99.90
2565;DHT22;1292;48.020;7.822;2023-03-29T11:14:12;15.50;99.90
2565;DHT22;1292;48.020;7.822;2023-03-29T11:16:48;15.60;99.90
2565;DHT22;1292;48.020;7.822;2023-03-29T11:19:34;15.70;99.90
2565;DHT22;1292;48.020;7.822;2023-03-29T11:22:08;15.80;99.90
2565;DHT22;1292;48.020;7.822;2023-03-29T11:24:49;15.90;99.90
2565;DHT22;1292;48.020;7.822;2023-03-29T11:27:28;16.00;99.90
2565;DHT22;1292;48.020;7.822;2023-03-29T11:30:09;16.10;99.90
2565;DHT22;1292;48.020;7.822;2023-03-29T11:32:47;16.20;99.90
2565;DHT22;1292;48.020;7.822;2023-03-29T11:38:15;16.40;99.90
2565;DHT22;1292;48.020;7.822;2023-03-29T11:40:51;16.60;99.90
2565;DHT22;1292;48.020;7.822;2023-03-29T11:43:21;16.70;99.90
2565;DHT22;1292;48.020;7.822;2023-03-29T11:45:53;16.90;99.90
2565;DHT22;1292;48.020;7.822;2023-03-29T11:48:26;17.00;99.90
2565;DHT22;1292;48.020;7.822;2023-03-29T11:50:58;17.20;99.90
2565;DHT22;1292;48.020;7.822;2023-03-29T11:53:29;17.30;99.90
2565;DHT22;1292;48.020;7.822;2023-03-29T11:56:07;17.30;99.90
2565;DHT22;1292;48.020;7.822;2023-03-29T11:58:38;17.30;99.90
2565;DHT22;1292;48.020;7.822;2023-03-29T12:01:09;17.40;99.90
2565;DHT22;1292;48.020;7.822;2023-03-29T12:03:43;17.40;99.90
2565;DHT22;1292;48.020;7.822;2023-03-29T12:06:16;17.40;99.90
2565;DHT22;1292;48.020;7.822;2023-03-29T12:08:48;17.40;99.90
2565;DHT22;1292;48.020;7.822;2023-03-29T12:11:21;17.30;99.90
2565;DHT22;1292;48.020;7.822;2023-03-29T12:13:50;17.40;99.90
2565;DHT22;1292;48.020;7.822;2023-03-29T12:16:23;17.40;99.90
2565;DHT22;1292;48.020;7.822;2023-03-29T12:18:55;17.50;99.90
2565;DHT22;1292;48.020;7.822;2023-03-29T12:21:24;17.60;99.90
2565;DHT22;1292;48.020;7.822;2023-03-29T12:23:52;17.60;99.90
2565;DHT22;1292;48.020;7.822;2023-03-29T12:26:31;17.60;99.90
2565;DHT22;1292;48.020;7.822;2023-03-29T12:29:09;17.70;99.90
2565;DHT22;1292;48.020;7.822;2023-03-29T12:31:47;17.80;99.90
2565;DHT22;1292;48.020;7.822;2023-03-29T12:34:37;17.80;99.90
2565;DHT22;1292;48.020;7.822;2023-03-29T12:37:23;17.80;99.90
2565;DHT22;1292;48.020;7.822;2023-03-29T12:40:10;17.90;99.90
2565;DHT22;1292;48.020;7.822;2023-03-29T12:42:43;18.00;99.90
2565;DHT22;1292;48.020;7.822;2023-03-29T12:45:16;18.10;99.90
2565;DHT22;1292;48.020;7.822;2023-03-29T12:47:46;18.10;99.90
2565;DHT22;1292;48.020;7.822;2023-03-29T12:50:23;18.20;99.90
2565;DHT22;1292;48.020;7.822;2023-03-29T12:53:00;18.20;99.90
2565;DHT22;1292;48.020;7.822;2023-03-29T12:55:32;18.20;99.90
2565;DHT22;1292;48.020;7.822;2023-03-29T12:58:02;18.20;99.90
2565;DHT22;1292;48.020;7.822;2023-03-29T13:00:42;18.30;99.90
2565;DHT22;1292;48.020;7.822;2023-03-29T13:03:28;18.30;99.90
2565;DHT22;1292;48.020;7.822;2023-03-29T13:06:01;18.20;99.90
2565;DHT22;1292;48.020;7.822;2023-03-29T13:08:33;18.20;99.90
2565;DHT22;1292;48.020;7.822;2023-03-29T13:11:01;18.20;99.90
2565;DHT22;1292;48.020;7.822;2023-03-29T13:13:32;18.20;99.90
2565;DHT22;1292;48.020;7.822;2023-03-29T13:16:13;18.30;99.90
2565;DHT22;1292;48.020;7.822;2023-03-29T13:18:56;18.30;99.90
2565;DHT22;1292;48.020;7.822;2023-03-29T13:21:34;18.40;99.90
2565;DHT22;1292;48.020;7.822;2023-03-29T13:24:19;18.50;99.90
2565;DHT22;1292;48.020;7.822;2023-03-29T13:26:54;18.60;99.90
2565;DHT22;1292;48.020;7.822;2023-03-29T13:29:45;18.70;99.90
2565;DHT22;1292;48.020;7.822;2023-03-29T13:32:32;18.90;99.90
2565;DHT22;1292;48.020;7.822;2023-03-29T13:35:06;18.90;99.90
2565;DHT22;1292;48.020;7.822;2023-03-29T13:37:45;18.90;99.90
2565;DHT22;1292;48.020;7.822;2023-03-29T13:40:31;18.90;99.90
2565;DHT22;1292;48.020;7.822;2023-03-29T13:43:00;19.00;99.90
2565;DHT22;1292;48.020;7.822;2023-03-29T13:45:28;19.00;99.90
2565;DHT22;1292;48.020;7.822;2023-03-29T13:48:03;19.00;99.90
2565;DHT22;1292;48.020;7.822;2023-03-29T13:50:36;19.10;99.90
2565;DHT22;1292;48.020;7.822;2023-03-29T13:53:09;19.10;99.90
2565;DHT22;1292;48.020;7.822;2023-03-29T13:55:44;19.20;99.90
2565;DHT22;1292;48.020;7.822;2023-03-29T13:58:17;19.30;99.90
2565;DHT22;1292;48.020;7.822;2023-03-29T14:00:51;19.30;99.90
2565;DHT22;1292;48.020;7.822;2023-03-29T14:03:20;19.30;99.90
2565;DHT22;1292;48.020;7.822;2023-03-29T14:05:54;19.20;99.90
2565;DHT22;1292;48.020;7.822;2023-03-29T14:08:26;19.30;99.90
2565;DHT22;1292;48.020;7.822;2023-03-29T14:10:54;19.30;99.90
2565;DHT22;1292;48.020;7.822;2023-03-29T14:13:23;19.50;99.90
2565;DHT22;1292;48.020;7.822;2023-03-29T14:15:53;19.60;99.90
2565;DHT22;1292;48.020;7.822;2023-03-29T14:18:22;19.70;99.90
2565;DHT22;1292;48.020;7.822;2023-03-29T14:20:51;19.80;99.90
2565;DHT22;1292;48.020;7.822;2023-03-29T14:23:21;19.80;99.90
2565;DHT22;1292;48.020;7.822;2023-03-29T14:25:50;19.90;99.90
2565;DHT22;1292;48.020;7.822;2023-03-29T14:28:21;19.70;99.90
2565;DHT22;1292;48.020;7.822;2023-03-29T14:30:48;19.60;99.90
2565;DHT22;1292;48.020;7.822;2023-03-29T14:33:23;19.60;99.90
2565;DHT22;1292;48.020;7.822;2023-03-29T14:35:52;19.50;99.90
2565;DHT22;1292;48.020;7.822;2023-03-29T14:38:20;19.60;99.90
2565;DHT22;1292;48.020;7.822;2023-03-29T14:40:47;19.60;99.90
2565;DHT22;1292;48.020;7.822;2023-03-29T14:43:18;19.60;99.30
2565;DHT22;1292;48.020;7.822;2023-03-29T14:45:47;19.60;99.20
2565;DHT22;1292;48.020;7.822;2023-03-29T14:48:15;19.60;99.60
2565;DHT22;1292;48.020;7.822;2023-03-29T14:50:43;19.60;99.50
2565;DHT22;1292;48.020;7.822;2023-03-29T14:53:15;19.60;99.60
2565;DHT22;1292;48.020;7.822;2023-03-29T14:55:46;19.50;99.30
2565;DHT22;1292;48.020;7.822;2023-03-29T14:58:19;19.50;98.90
2565;DHT22;1292;48.020;7.822;2023-03-29T15:00:48;19.40;99.60
2565;DHT22;1292;48.020;7.822;2023-03-29T15:03:17;19.40;99.70
2565;DHT22;1292;48.020;7.822;2023-03-29T15:05:47;19.30;99.90
2565;DHT22;1292;48.020;7.822;2023-03-29T15:08:18;19.20;99.70
2565;DHT22;1292;48.020;7.822;2023-03-29T15:10:49;19.10;99.90
2565;DHT22;1292;48.020;7.822;2023-03-29T15:13:20;19.10;99.50
2565;DHT22;1292;48.020;7.822;2023-03-29T15:15:50;19.10;99.70
2565;DHT22;1292;48.020;7.822;2023-03-29T15:18:22;19.00;99.90
2565;DHT22;1292;48.020;7.822;2023-03-29T15:20:52;18.90;99.10
2565;DHT22;1292;48.020;7.822;2023-03-29T15:23:22;18.90;99.90
2565;DHT22;1292;48.020;7.822;2023-03-29T15:25:52;18.90;99.70
2565;DHT22;1292;48.020;7.822;2023-03-29T15:28:26;18.90;99.90
2565;DHT22;1292;48.020;7.822;2023-03-29T15:30:59;18.90;99.70
2565;DHT22;1292;48.020;7.822;2023-03-29T15:33:32;18.80;99.50
2565;DHT22;1292;48.020;7.822;2023-03-29T15:36:01;18.80;99.90
2565;DHT22;1292;48.020;7.822;2023-03-29T15:38:28;18.80;99.90
2565;DHT22;1292;48.020;7.822;2023-03-29T15:40:56;18.80;99.90
2565;DHT22;1292;48.020;7.822;2023-03-29T15:43:24;18.70;99.90
2565;DHT22;1292;48.020;7.822;2023-03-29T15:45:51;18.70;99.90
2565;DHT22;1292;48.020;7.822;2023-03-29T15:48:21;18.60;99.70
2565;DHT22;1292;48.020;7.822;2023-03-29T15:50:48;18.60;99.90
2565;DHT22;1292;48.020;7.822;2023-03-29T15:53:16;18.60;99.60
2565;DHT22;1292;48.020;7.822;2023-03-29T15:55:46;18.60;99.90
2565;DHT22;1292;48.020;7.822;2023-03-29T15:58:16;18.60;99.70
2565;DHT22;1292;48.020;7.822;2023-03-29T16:00:49;18.70;99.90
2565;DHT22;1292;48.020;7.822;2023-03-29T16:03:16;18.70;99.90
2565;DHT22;1292;48.020;7.822;2023-03-29T16:05:44;18.60;99.90
2565;DHT22;1292;48.020;7.822;2023-03-29T16:08:12;18.60;99.90
2565;DHT22;1292;48.020;7.822;2023-03-29T16:10:40;18.60;99.90
2565;DHT22;1292;48.020;7.822;2023-03-29T16:13:10;18.50;99.90
2565;DHT22;1292;48.020;7.822;2023-03-29T16:15:37;18.60;99.90
2565;DHT22;1292;48.020;7.822;2023-03-29T16:18:07;18.50;99.90
2565;DHT22;1292;48.020;7.822;2023-03-29T16:20:34;18.50;99.90
2565;DHT22;1292;48.020;7.822;2023-03-29T16:23:02;18.40;99.90
2565;DHT22;1292;48.020;7.822;2023-03-29T16:25:34;18.40;99.90
2565;DHT22;1292;48.020;7.822;2023-03-29T16:28:05;18.50;99.90
2565;DHT22;1292;48.020;7.822;2023-03-29T16:30:33;18.50;99.90
2565;DHT22;1292;48.020;7.822;2023-03-29T16:33:00;18.50;99.90
2565;DHT22;1292;48.020;7.822;2023-03-29T16:35:34;18.50;99.90
2565;DHT22;1292;48.020;7.822;2023-03-29T16:38:02;18.50;99.90
2565;DHT22;1292;48.020;7.822;2023-03-29T16:40:29;18.40;99.90
2565;DHT22;1292;48.020;7.822;2023-03-29T16:42:56;18.40;99.90
2565;DHT22;1292;48.020;7.822;2023-03-29T16:45:22;18.40;99.90
2565;DHT22;1292;48.020;7.822;2023-03-29T16:47:49;18.30;99.70
2565;DHT22;1292;48.020;7.822;2023-03-29T16:50:17;18.20;99.80
2565;DHT22;1292;48.020;7.822;2023-03-29T16:52:47;18.20;99.80
2565;DHT22;1292;48.020;7.822;2023-03-29T16:55:16;18.30;99.10
2565;DHT22;1292;48.020;7.822;2023-03-29T16:57:43;18.30;99.40
2565;DHT22;1292;48.020;7.822;2023-03-29T17:00:13;18.30;99.30
2565;DHT22;1292;48.020;7.822;2023-03-29T17:02:40;18.30;99.60
2565;DHT22;1292;48.020;7.822;2023-03-29T17:05:08;18.20;99.50
2565;DHT22;1292;48.020;7.822;2023-03-29T17:07:35;18.20;99.40
2565;DHT22;1292;48.020;7.822;2023-03-29T17:10:04;18.20;99.70
2565;DHT22;1292;48.020;7.822;2023-03-29T17:12:31;18.20;99.70
2565;DHT22;1292;48.020;7.822;2023-03-29T17:14:58;18.20;99.70
2565;DHT22;1292;48.020;7.822;2023-03-29T17:17:25;18.10;99.80
2565;DHT22;1292;48.020;7.822;2023-03-29T17:19:53;18.10;99.70
2565;DHT22;1292;48.020;7.822;2023-03-29T17:22:20;18.10;99.60
2565;DHT22;1292;48.020;7.822;2023-03-29T17:24:47;18.10;99.50
2565;DHT22;1292;48.020;7.822;2023-03-29T17:27:15;18.00;99.60
2565;DHT22;1292;48.020;7.822;2023-03-29T17:29:42;18.00;99.80
2565;DHT22;1292;48.020;7.822;2023-03-29T17:32:09;18.10;99.80
2565;DHT22;1292;48.020;7.822;2023-03-29T17:34:35;18.00;99.90
2565;DHT22;1292;48.020;7.822;2023-03-29T17:37:03;18.00;99.90
2565;DHT22;1292;48.020;7.822;2023-03-29T17:39:31;17.90;99.90
2565;DHT22;1292;48.020;7.822;2023-03-29T17:42:01;17.90;99.90
2565;DHT22;1292;48.020;7.822;2023-03-29T17:44:29;17.90;99.90
2565;DHT22;1292;48.020;7.822;2023-03-29T17:46:57;17.80;99.90
2565;DHT22;1292;48.020;7.822;2023-03-29T17:49:24;17.80;99.90
2565;DHT22;1292;48.020;7.822;2023-03-29T17:51:51;17.70;99.90
2565;DHT22;1292;48.020;7.822;2023-03-29T17:54:18;17.70;99.90
2565;DHT22;1292;48.020;7.822;2023-03-29T17:56:45;17.70;99.90
2565;DHT22;1292;48.020;7.822;2023-03-29T17:59:13;17.60;99.90
2565;DHT22;1292;48.020;7.822;2023-03-29T18:01:42;17.60;99.90
2565;DHT22;1292;48.020;7.822;2023-03-29T18:04:09;17.50;99.90
2565;DHT22;1292;48.020;7.822;2023-03-29T18:06:36;17.40;99.90
2565;DHT22;1292;48.020;7.822;2023-03-29T18:09:03;17.40;99.90
2565;DHT22;1292;48.020;7.822;2023-03-29T18:11:30;17.40;99.90
2565;DHT22;1292;48.020;7.822;2023-03-29T18:13:58;17.30;99.90
2565;DHT22;1292;48.020;7.822;2023-03-29T18:16:26;17.30;99.90
2565;DHT22;1292;48.020;7.822;2023-03-29T18:18:54;17.30;99.90
2565;DHT22;1292;48.020;7.822;2023-03-29T18:21:22;17.30;99.90
2565;DHT22;1292;48.020;7.822;2023-03-29T18:23:50;17.30;99.90
2565;DHT22;1292;48.020;7.822;2023-03-29T18:26:17;17.30;99.90
2565;DHT22;1292;48.020;7.822;2023-03-29T18:28:44;17.30;99.90
2565;DHT22;1292;48.020;7.822;2023-03-29T18:31:12;17.30;99.90
2565;DHT22;1292;48.020;7.822;2023-03-29T18:33:39;17.20;99.90
2565;DHT22;1292;48.020;7.822;2023-03-29T18:36:09;17.20;99.90
2565;DHT22;1292;48.020;7.822;2023-03-29T18:38:36;17.20;99.90
2565;DHT22;1292;48.020;7.822;2023-03-29T18:41:05;17.20;99.90
2565;DHT22;1292;48.020;7.822;2023-03-29T18:43:33;17.20;99.90
2565;DHT22;1292;48.020;7.822;2023-03-29T18:46:01;17.20;99.90
2565;DHT22;1292;48.020;7.822;2023-03-29T18:48:28;17.20;99.90
2565;DHT22;1292;48.020;7.822;2023-03-29T18:50:55;17.20;99.90
2565;DHT22;1292;48.020;7.822;2023-03-29T18:53:24;17.20;99.90
2565;DHT22;1292;48.020;7.822;2023-03-29T18:55:50;17.20;99.90
2565;DHT22;1292;48.020;7.822;2023-03-29T18:58:17;17.20;99.90
2565;DHT22;1292;48.020;7.822;2023-03-29T19:00:48;17.20;99.90
2565;DHT22;1292;48.020;7.822;2023-03-29T19:03:15;17.20;99.90
2565;DHT22;1292;48.020;7.822;2023-03-29T19:05:42;17.20;99.90
2565;DHT22;1292;48.020;7.822;2023-03-29T19:08:09;17.20;99.90
2565;DHT22;1292;48.020;7.822;2023-03-29T19:10:37;17.20;99.90
2565;DHT22;1292;48.020;7.822;2023-03-29T19:13:05;17.10;99.90
2565;DHT22;1292;48.020;7.822;2023-03-29T19:15:32;17.10;99.90
2565;DHT22;1292;48.020;7.822;2023-03-29T19:17:59;17.10;99.90
2565;DHT22;1292;48.020;7.822;2023-03-29T19:20:25;17.10;99.90
2565;DHT22;1292;48.020;7.822;2023-03-29T19:22:52;17.00;99.90
2565;DHT22;1292;48.020;7.822;2023-03-29T19:25:19;17.00;99.90
2565;DHT22;1292;48.020;7.822;2023-03-29T19:27:47;17.00;99.90
2565;DHT22;1292;48.020;7.822;2023-03-29T19:30:14;17.00;99.90
2565;DHT22;1292;48.020;7.822;2023-03-29T19:32:42;17.00;99.90
2565;DHT22;1292;48.020;7.822;2023-03-29T19:35:10;17.10;99.90
2565;DHT22;1292;48.020;7.822;2023-03-29T19:37:38;17.10;99.90
2565;DHT22;1292;48.020;7.822;2023-03-29T19:40:06;17.20;99.90
2565;DHT22;1292;48.020;7.822;2023-03-29T19:42:35;17.20;99.90
2565;DHT22;1292;48.020;7.822;2023-03-29T19:45:05;17.20;99.90
2565;DHT22;1292;48.020;7.822;2023-03-29T19:47:32;17.30;99.90
2565;DHT22;1292;48.020;7.822;2023-03-29T19:49:59;17.30;99.90
2565;DHT22;1292;48.020;7.822;2023-03-29T19:52:27;17.40;99.90
2565;DHT22;1292;48.020;7.822;2023-03-29T19:54:55;17.50;99.90
2565;DHT22;1292;48.020;7.822;2023-03-29T19:57:23;17.60;99.90
2565;DHT22;1292;48.020;7.822;2023-03-29T19:59:50;17.60;99.90
2565;DHT22;1292;48.020;7.822;2023-03-29T20:02:19;17.70;99.90
2565;DHT22;1292;48.020;7.822;2023-03-29T20:04:46;17.70;99.90
2565;DHT22;1292;48.020;7.822;2023-03-29T20:07:14;17.70;99.90
2565;DHT22;1292;48.020;7.822;2023-03-29T20:09:41;17.70;99.90
2565;DHT22;1292;48.020;7.822;2023-03-29T20:12:08;17.70;99.90
2565;DHT22;1292;48.020;7.822;2023-03-29T20:14:35;17.70;99.90
2565;DHT22;1292;48.020;7.822;2023-03-29T20:17:05;17.80;99.90
2565;DHT22;1292;48.020;7.822;2023-03-29T20:19:34;17.80;99.90
2565;DHT22;1292;48.020;7.822;2023-03-29T20:22:01;17.80;99.90
2565;DHT22;1292;48.020;7.822;2023-03-29T20:24:29;17.80;99.90
2565;DHT22;1292;48.020;7.822;2023-03-29T20:26:57;17.80;99.90
2565;DHT22;1292;48.020;7.822;2023-03-29T20:29:23;17.80;99.90
2565;DHT22;1292;48.020;7.822;2023-03-29T20:31:50;17.90;99.90
2565;DHT22;1292;48.020;7.822;2023-03-29T20:34:17;17.90;99.90
2565;DHT22;1292;48.020;7.822;2023-03-29T20:36:45;17.80;99.90
2565;DHT22;1292;48.020;7.822;2023-03-29T20:39:12;17.80;99.90
2565;DHT22;1292;48.020;7.822;2023-03-29T20:41:42;17.90;99.90
2565;DHT22;1292;48.020;7.822;2023-03-29T20:44:12;17.80;99.90
2565;DHT22;1292;48.020;7.822;2023-03-29T20:46:41;17.80;99.90
2565;DHT22;1292;48.020;7.822;2023-03-29T20:49:11;17.90;99.90
2565;DHT22;1292;48.020;7.822;2023-03-29T20:51:37;17.90;99.90
2565;DHT22;1292;48.020;7.822;2023-03-29T20:54:08;17.90;99.90
2565;DHT22;1292;48.020;7.822;2023-03-29T20:56:37;17.90;99.90
2565;DHT22;1292;48.020;7.822;2023-03-29T20:59:06;17.90;99.90
